createdAt,value
2023-05-10T03:09:36.432Z,97547.41
2023-05-10T03:12:33.166Z,97558.63
2023-05-10T03:15:06.136Z,97558.13
2023-05-10T03:17:47.158Z,97565.59
2023-05-10T03:20:34.597Z,97563.41
2023-05-10T03:23:24.365Z,97565.88
2023-05-10T03:25:51.819Z,97560.06
2023-05-10T03:28:20.373Z,97569.25
2023-05-10T03:30:47.997Z,97574.19
2023-05-10T03:33:15.211Z,97558.22
2023-05-10T03:35:46.703Z,97582.31
2023-05-10T03:38:16.342Z,97574.13
2023-05-10T03:40:42.968Z,97584.59
2023-05-10T03:43:12.180Z,97574.84
2023-05-10T03:45:38.870Z,97568.06
2023-05-10T03:48:06.597Z,97584.69
2023-05-10T03:50:33.308Z,97593.16
2023-05-10T03:52:59.999Z,97587.03
2023-05-10T03:55:30.800Z,97575.16
2023-05-10T03:57:57.568Z,97601.72
2023-05-10T04:00:24.636Z,97597.66
2023-05-10T04:02:54.518Z,97602.16
2023-05-10T04:05:21.307Z,97594.53
2023-05-10T04:07:50.148Z,97602.06
2023-05-10T04:10:17.688Z,97602.25
2023-05-10T04:12:47.081Z,97607.44
2023-05-10T04:15:13.718Z,97603.72
2023-05-10T04:17:42.697Z,97601.19
2023-05-10T04:20:10.162Z,97616.84
2023-05-10T04:22:36.793Z,97616.22
2023-05-10T04:25:06.220Z,97616.41
2023-05-10T04:27:35.310Z,97609.56
2023-05-10T04:30:02.202Z,97610.19
2023-05-10T04:32:29.225Z,97622.34
2023-05-10T04:34:55.869Z,97609.34
2023-05-10T04:37:23.898Z,97631.84
2023-05-10T04:39:51.213Z,97609.72
2023-05-10T04:42:17.881Z,97642.63
2023-05-10T04:44:46.800Z,97598.81
2023-05-10T04:47:17.802Z,97644.75
2023-05-10T04:49:44.377Z,97628.69
2023-05-10T04:52:13.537Z,97633.25
2023-05-10T04:54:40.212Z,97657.66
2023-05-10T04:57:09.370Z,97662.50
2023-05-10T04:59:37.972Z,97610.97
2023-05-10T05:02:05.391Z,97650.13
2023-05-10T05:04:32.541Z,97670.06
2023-05-10T05:06:59.099Z,97605.47
2023-05-10T05:09:25.796Z,97658.34
2023-05-10T05:11:54.769Z,97660.69
2023-05-10T05:14:26.007Z,97675.09
2023-05-10T05:16:56.804Z,97611.09
2023-05-10T05:19:23.805Z,97663.66
2023-05-10T05:21:51.729Z,97669.81
2023-05-10T05:24:18.678Z,97676.56
2023-05-10T05:26:48.171Z,97681.69
2023-05-10T05:29:14.783Z,97633.88
2023-05-10T05:31:43.735Z,97676.75
2023-05-10T05:34:10.446Z,97650.22
2023-05-10T05:36:39.349Z,97668.81
2023-05-10T05:39:06.082Z,97679.34
2023-05-10T05:41:34.974Z,97692.25
2023-05-10T05:44:01.521Z,97694.44
2023-05-10T05:46:28.141Z,97627.00
2023-05-10T05:48:54.853Z,97705.25
2023-05-10T05:51:21.507Z,97684.94
2023-05-10T05:53:48.093Z,97694.75
2023-05-10T05:56:14.817Z,97684.59
2023-05-10T05:58:41.455Z,97694.81
2023-05-10T06:01:08.638Z,97719.81
2023-05-10T06:03:35.409Z,97679.91
2023-05-10T06:06:04.367Z,97697.19
2023-05-10T06:08:30.900Z,97717.78
2023-05-10T06:10:57.464Z,97711.50
2023-05-10T06:13:24.050Z,97727.94
2023-05-10T06:15:50.753Z,97711.66
2023-05-10T06:18:19.721Z,97720.47
2023-05-10T06:20:50.747Z,97720.16
2023-05-10T06:23:19.674Z,97741.09
2023-05-10T06:25:47.021Z,97690.81
2023-05-10T06:28:13.560Z,97735.88
2023-05-10T06:30:40.221Z,97731.75
2023-05-10T06:33:06.837Z,97714.66
2023-05-10T06:35:34.451Z,97690.63
2023-05-10T06:38:03.630Z,97728.56
2023-05-10T06:40:30.238Z,97729.59
2023-05-10T06:42:56.904Z,97710.56
2023-05-10T06:45:23.453Z,97738.31
2023-05-10T06:47:50.090Z,97752.09
2023-05-10T06:50:16.746Z,97748.25
2023-05-10T06:52:44.175Z,97731.09
2023-05-10T06:55:11.156Z,97754.53
2023-05-10T06:57:39.053Z,97748.94
2023-05-10T07:00:06.804Z,97720.94
2023-05-10T07:02:33.724Z,97749.00
2023-05-10T07:05:02.724Z,97723.06
2023-05-10T07:07:30.242Z,97737.03
2023-05-10T07:09:58.622Z,97750.63
2023-05-10T07:12:25.804Z,97761.75
2023-05-10T07:14:52.693Z,97747.41
2023-05-10T07:17:19.492Z,97755.06
2023-05-10T07:19:46.281Z,97753.38
2023-05-10T07:22:13.264Z,97760.06
2023-05-10T07:24:42.441Z,97721.78
2023-05-10T07:27:10.014Z,97763.09
2023-05-10T07:29:37.178Z,97748.16
2023-05-10T07:32:04.009Z,97752.41
2023-05-10T07:34:31.485Z,97770.94
2023-05-10T07:37:00.672Z,97750.38
2023-05-10T07:39:28.490Z,97778.47
2023-05-10T07:41:56.452Z,97761.28
2023-05-10T07:44:23.344Z,97760.56
2023-05-10T07:46:53.568Z,97780.47
2023-05-10T07:49:22.796Z,97773.91
2023-05-10T07:51:49.590Z,97770.41
2023-05-10T07:54:16.261Z,97789.59
2023-05-10T07:56:46.679Z,97732.69
2023-05-10T07:59:17.317Z,97784.88
2023-05-10T08:01:44.435Z,97777.75
2023-05-10T08:04:11.607Z,97783.81
2023-05-10T08:06:38.337Z,97770.97
2023-05-10T08:09:04.976Z,97788.56
2023-05-10T08:11:32.804Z,97799.34
2023-05-10T08:14:00.290Z,97752.53
2023-05-10T08:16:27.377Z,97784.94
2023-05-10T08:18:56.761Z,97793.44
2023-05-10T08:21:24.493Z,97790.47
2023-05-10T08:23:51.363Z,97771.69
2023-05-10T08:26:17.962Z,97794.38
2023-05-10T08:28:44.667Z,97792.66
2023-05-10T08:31:13.752Z,97788.59
2023-05-10T08:33:42.151Z,97790.75
2023-05-10T08:36:09.690Z,97793.06
2023-05-10T08:38:36.329Z,97797.53
2023-05-10T08:41:04.066Z,97800.53
2023-05-10T08:43:31.243Z,97804.91
2023-05-10T08:46:01.739Z,97797.47
2023-05-10T08:48:30.119Z,97800.22
2023-05-10T08:50:59.346Z,97788.16
2023-05-10T08:53:28.295Z,97797.16
2023-05-10T08:55:58.001Z,97823.19
2023-05-10T08:58:34.086Z,97803.59
2023-05-10T09:01:01.955Z,97811.44
2023-05-10T09:03:28.813Z,97794.88
2023-05-10T09:05:56.852Z,97834.16
2023-05-10T09:08:27.086Z,97822.81
2023-05-10T09:10:55.709Z,97826.22
2023-05-10T09:13:23.678Z,97818.81
2023-05-10T09:15:51.198Z,97832.34
2023-05-10T09:18:17.865Z,97819.63
2023-05-10T09:20:44.521Z,97832.22
2023-05-10T09:23:11.042Z,97823.28
2023-05-10T09:25:39.518Z,97836.34
2023-05-10T09:28:10.542Z,97815.81
2023-05-10T09:30:37.596Z,97847.00
2023-05-10T09:33:04.612Z,97830.44
2023-05-10T09:35:33.133Z,97816.47
2023-05-10T09:38:05.830Z,97834.03
2023-05-10T09:40:33.043Z,97804.28
2023-05-10T09:43:08.684Z,97812.00
2023-05-10T09:45:38.523Z,97835.94
2023-05-10T09:48:06.323Z,97823.66
2023-05-10T09:50:32.989Z,97810.63
2023-05-10T09:53:01.837Z,97828.63
2023-05-10T09:55:41.731Z,97826.88
2023-05-10T09:58:11.651Z,97827.81
2023-05-10T10:00:39.357Z,97815.28
2023-05-10T10:03:06.623Z,97814.44
2023-05-10T10:05:36.896Z,97808.41
2023-05-10T10:08:05.700Z,97808.56
2023-05-10T10:10:33.826Z,97789.22
2023-05-10T10:13:00.842Z,97809.16
2023-05-10T10:15:27.566Z,97810.09
2023-05-10T10:17:54.915Z,97816.16
2023-05-10T10:20:23.507Z,97801.47
2023-05-10T10:22:50.316Z,97800.28
2023-05-10T10:25:18.710Z,97798.56
2023-05-10T10:27:54.640Z,97808.06
2023-05-10T10:30:43.366Z,97810.94
2023-05-10T10:33:34.830Z,97810.28
2023-05-10T10:36:03.630Z,97809.88
2023-05-10T10:38:48.566Z,97803.09
2023-05-10T10:41:33.366Z,97812.47
2023-05-10T10:44:31.551Z,97812.16
2023-05-10T10:47:06.383Z,97819.13
2023-05-10T10:49:59.153Z,97814.63
2023-05-10T10:52:31.979Z,97816.47
2023-05-10T10:55:02.456Z,97814.00
2023-05-10T10:57:32.044Z,97816.69
2023-05-10T11:00:23.508Z,97820.88
2023-05-10T11:02:58.927Z,97818.69
2023-05-10T11:05:37.455Z,97809.00
2023-05-10T11:08:09.739Z,97817.88
2023-05-10T11:10:36.496Z,97812.78
2023-05-10T11:13:06.951Z,97814.31
2023-05-10T11:15:35.631Z,97813.47
2023-05-10T11:18:22.496Z,97815.63
2023-05-10T11:21:06.269Z,97818.81
2023-05-10T11:23:48.105Z,97824.00
2023-05-10T11:26:15.235Z,97822.09
2023-05-10T11:28:46.221Z,97819.16
2023-05-10T11:31:16.950Z,97814.50
2023-05-10T11:33:54.655Z,97823.63
2023-05-10T11:36:34.812Z,97814.69
2023-05-10T11:39:01.414Z,97818.41
2023-05-10T11:41:30.425Z,97828.63
2023-05-10T11:43:58.716Z,97806.16
2023-05-10T11:46:27.738Z,97824.22
2023-05-10T11:49:02.885Z,97826.78
2023-05-10T11:51:29.678Z,97826.50
2023-05-10T11:53:57.646Z,97830.63
2023-05-10T11:56:24.544Z,97835.97
2023-05-10T11:58:58.649Z,97832.59
2023-05-10T12:01:27.736Z,97824.53
2023-05-10T12:04:01.432Z,97834.25
2023-05-10T12:06:30.311Z,97839.84
2023-05-10T12:08:56.802Z,97838.94
2023-05-10T12:11:26.544Z,97824.72
2023-05-10T12:13:54.071Z,97835.84
2023-05-10T12:16:23.094Z,97846.47
2023-05-10T12:18:51.942Z,97840.25
2023-05-10T12:21:20.362Z,97835.84
2023-05-10T12:23:52.689Z,97835.59
2023-05-10T12:26:19.490Z,97839.34
2023-05-10T12:28:46.051Z,97820.97
2023-05-10T12:31:12.585Z,97820.38
2023-05-10T12:33:42.655Z,97819.53
2023-05-10T12:36:17.057Z,97834.41
2023-05-10T12:38:48.540Z,97832.00
2023-05-10T12:41:18.154Z,97832.59
2023-05-10T12:43:46.330Z,97826.38
2023-05-10T12:46:15.377Z,97832.91
2023-05-10T12:48:43.518Z,97824.41
2023-05-10T12:51:10.603Z,97818.13
2023-05-10T12:53:37.645Z,97822.44
2023-05-10T12:56:04.523Z,97829.47
2023-05-10T12:58:35.997Z,97821.13
2023-05-10T13:01:03.527Z,97834.25
2023-05-10T13:03:30.276Z,97847.06
2023-05-10T13:05:56.849Z,97839.78
2023-05-10T13:08:23.361Z,97846.66
2023-05-10T13:10:50.084Z,97846.25
2023-05-10T13:13:16.568Z,97842.81
2023-05-10T13:15:43.094Z,97843.25
2023-05-10T13:18:09.591Z,97842.38
2023-05-10T13:20:36.206Z,97842.69
2023-05-10T13:23:03.939Z,97822.56
2023-05-10T13:25:30.945Z,97843.31
2023-05-10T13:27:57.495Z,97839.47
2023-05-10T13:30:24.923Z,97839.94
2023-05-10T13:32:51.538Z,97835.47
2023-05-10T13:35:18.112Z,97840.03
2023-05-10T13:37:44.679Z,97832.81
2023-05-10T13:40:11.500Z,97844.53
2023-05-10T13:42:38.473Z,97839.34
2023-05-10T13:45:05.662Z,97815.78
2023-05-10T13:47:32.328Z,97836.09
2023-05-10T13:49:59.430Z,97832.44
2023-05-10T13:52:26.967Z,97832.94
2023-05-10T13:54:55.897Z,97821.75
2023-05-10T13:57:23.095Z,97825.53
2023-05-10T13:59:49.885Z,97822.56
2023-05-10T14:02:16.607Z,97837.31
2023-05-10T14:04:43.156Z,97820.13
2023-05-10T14:07:09.676Z,97816.28
2023-05-10T14:09:36.453Z,97827.09
2023-05-10T14:12:03.155Z,97807.38
2023-05-10T14:14:30.409Z,97815.31
2023-05-10T14:16:57.165Z,97833.03
2023-05-10T14:19:23.725Z,97834.63
2023-05-10T14:21:50.427Z,97821.97
2023-05-10T14:24:17.008Z,97830.13
2023-05-10T14:26:43.520Z,97842.91
2023-05-10T14:29:12.287Z,97831.97
2023-05-10T14:31:39.275Z,97824.44
2023-05-10T14:34:06.622Z,97822.63
2023-05-10T14:36:33.356Z,97833.53
2023-05-10T14:38:59.960Z,97832.69
2023-05-10T14:41:26.470Z,97831.56
2023-05-10T14:43:53.444Z,97833.75
2023-05-10T14:46:20.095Z,97827.47
2023-05-10T14:48:46.638Z,97832.56
2023-05-10T14:51:13.198Z,97828.56
2023-05-10T14:53:39.772Z,97832.28
2023-05-10T14:56:06.461Z,97827.97
2023-05-10T14:58:34.323Z,97842.91
2023-05-10T15:01:01.219Z,97834.47
2023-05-10T15:03:28.451Z,97843.38
2023-05-10T15:05:56.995Z,97855.09
2023-05-10T15:08:25.433Z,97869.59
2023-05-10T15:10:52.673Z,97870.88
2023-05-10T15:13:19.155Z,97871.22
2023-05-10T15:15:45.750Z,97857.56
2023-05-10T15:18:12.608Z,97879.16
2023-05-10T15:20:39.751Z,97678.25
2023-05-10T15:23:09.160Z,97671.81
2023-05-10T15:25:38.170Z,97810.38
2023-05-10T15:28:08.772Z,97781.78
2023-05-10T15:30:35.698Z,97677.00
2023-05-10T15:33:03.029Z,97906.63
2023-05-10T15:35:29.771Z,97882.91
2023-05-10T15:37:56.373Z,97884.47
2023-05-10T15:40:22.910Z,97881.72
2023-05-10T15:42:49.425Z,97886.09
2023-05-10T15:45:16.744Z,97887.66
2023-05-10T15:47:45.011Z,97887.34
2023-05-10T15:50:12.373Z,97891.72
2023-05-10T15:52:38.886Z,97882.03
2023-05-10T15:55:13.196Z,97884.91
2023-05-10T15:57:41.552Z,97891.88
2023-05-10T16:00:09.853Z,97890.28
2023-05-10T16:02:42.798Z,97897.84
2023-05-10T16:05:10.111Z,97899.75
2023-05-10T16:07:36.655Z,97897.94
2023-05-10T16:10:06.425Z,97892.00
2023-05-10T16:12:33.265Z,97897.09
2023-05-10T16:14:59.890Z,97900.59
2023-05-10T16:17:26.649Z,97902.09
2023-05-10T16:19:53.346Z,97890.28
2023-05-10T16:22:22.171Z,97894.66
2023-05-10T16:24:48.806Z,97899.75
2023-05-10T16:27:15.440Z,97896.25
2023-05-10T16:29:41.979Z,97903.69
2023-05-10T16:32:08.555Z,97911.31
2023-05-10T16:34:35.162Z,97908.22
2023-05-10T16:37:01.733Z,97911.41
2023-05-10T16:39:28.245Z,97908.22
2023-05-10T16:41:54.876Z,97919.84
2023-05-10T16:44:23.583Z,97918.25
2023-05-10T16:46:52.618Z,97916.50
2023-05-10T16:49:19.187Z,97921.16
2023-05-10T16:51:45.944Z,97925.75
2023-05-10T16:54:12.539Z,97916.75
2023-05-10T16:56:39.121Z,97929.88
2023-05-10T16:59:05.894Z,97905.91
2023-05-10T17:01:34.061Z,97927.09
2023-05-10T17:04:19.877Z,97926.78
2023-05-10T17:07:05.414Z,97937.94
2023-05-10T17:09:52.227Z,97928.41
2023-05-10T17:12:39.104Z,97924.94
2023-05-10T17:15:26.228Z,97938.91
2023-05-10T17:18:13.223Z,97936.63
2023-05-10T17:21:00.414Z,97941.22
2023-05-10T17:23:47.263Z,97943.00
2023-05-10T17:26:34.540Z,97948.31
2023-05-10T17:29:21.460Z,97950.75
2023-05-10T17:32:09.345Z,97959.59
2023-05-10T17:34:56.207Z,97960.31
2023-05-10T17:37:44.023Z,97948.94
2023-05-10T17:40:30.959Z,97962.31
2023-05-10T17:43:17.765Z,97949.41
2023-05-10T17:46:04.768Z,97967.06
2023-05-10T17:48:51.681Z,97974.69
2023-05-10T17:51:39.220Z,97962.34
2023-05-10T17:54:26.126Z,97970.13
2023-05-10T17:57:12.973Z,97959.44
2023-05-10T17:59:59.899Z,97981.22
2023-05-10T18:02:46.816Z,97992.13
2023-05-10T18:05:37.617Z,97981.31
2023-05-10T18:08:27.148Z,97997.53
2023-05-10T18:11:13.975Z,97994.94
2023-05-10T18:14:00.847Z,97997.06
2023-05-10T18:16:47.748Z,97988.06
2023-05-10T18:19:34.606Z,97990.41
2023-05-10T18:22:21.625Z,98003.75
2023-05-10T18:25:08.938Z,97998.19
2023-05-10T18:27:55.916Z,97998.38
2023-05-10T18:30:42.798Z,98006.31
2023-05-10T18:33:29.709Z,98005.53
2023-05-10T18:36:16.889Z,98000.50
2023-05-10T18:39:03.930Z,98010.84
2023-05-10T18:41:50.946Z,98004.69
2023-05-10T18:44:37.799Z,98004.69
2023-05-10T18:47:26.668Z,98009.97
2023-05-10T18:50:13.888Z,97976.66
2023-05-10T18:53:00.721Z,97986.00
2023-05-10T18:55:55.630Z,98010.16
2023-05-10T18:58:42.472Z,98011.22
2023-05-10T19:01:29.325Z,97990.75
2023-05-10T19:04:16.193Z,98026.09
2023-05-10T19:07:03.464Z,98027.84
2023-05-10T19:09:50.490Z,98017.91
2023-05-10T19:12:37.464Z,98023.72
2023-05-10T19:15:24.605Z,98030.41
2023-05-10T19:18:11.860Z,98027.66
2023-05-10T19:20:58.859Z,98037.50
2023-05-10T19:23:48.191Z,98038.94
2023-05-10T19:26:36.301Z,98032.81
2023-05-10T19:29:24.133Z,98032.72
2023-05-10T19:32:11.974Z,98042.72
2023-05-10T19:34:58.813Z,98035.34
2023-05-10T19:37:47.144Z,98030.91
2023-05-10T19:40:34.175Z,98034.78
2023-05-10T19:43:22.161Z,98059.72
